createdAt,value
2022-09-17T00:00:48.007Z,100639.38
2022-09-17T00:05:49.525Z,100645.03
2022-09-17T00:10:51.019Z,100646.28
2022-09-17T00:15:52.606Z,100646.94
2022-09-17T00:20:54.389Z,100641.69
2022-09-17T00:25:55.873Z,100632.19
2022-09-17T00:30:57.379Z,100641.47
2022-09-17T00:36:00.940Z,100637.50
2022-09-17T00:41:03.742Z,100633.25
2022-09-17T00:46:16.209Z,100630.41
2022-09-17T00:51:21.352Z,100635.09
2022-09-17T00:56:27.125Z,100635.88
2022-09-17T01:01:29.132Z,100642.59
2022-09-17T01:06:48.553Z,100641.13
2022-09-17T01:11:59.315Z,100636.66
2022-09-17T01:17:17.256Z,100646.59
2022-09-17T01:22:33.192Z,100652.94
2022-09-17T01:27:37.700Z,100647.22
2022-09-17T01:32:47.000Z,100656.34
2022-09-17T01:38:07.683Z,100652.69
2022-09-17T01:43:19.865Z,100646.25
2022-09-17T01:48:35.904Z,100656.91
2022-09-17T01:54:05.516Z,100653.91
2022-09-17T01:59:19.615Z,100667.84
2022-09-17T02:04:29.425Z,100669.31
2022-09-17T02:09:36.833Z,100671.66
2022-09-17T02:14:44.910Z,100677.97
2022-09-17T02:19:46.489Z,100683.56
2022-09-17T02:25:22.112Z,100677.25
2022-09-17T02:30:23.664Z,100685.19
2022-09-17T02:35:25.531Z,100682.28
2022-09-17T02:40:31.664Z,100678.13
2022-09-17T02:45:53.415Z,100686.00
2022-09-17T02:51:18.263Z,100683.44
2022-09-17T02:56:42.972Z,100684.75
2022-09-17T03:02:00.938Z,100689.09
2022-09-17T03:07:10.962Z,100685.22
2022-09-17T03:12:12.520Z,100681.81
2022-09-17T03:17:14.043Z,100674.06
2022-09-17T03:22:15.637Z,100686.44
2022-09-17T03:27:17.269Z,100680.06
2022-09-17T03:32:18.791Z,100681.63
2022-09-17T03:37:20.601Z,100681.19
2022-09-17T03:42:22.089Z,100687.94
2022-09-17T03:47:23.580Z,100688.31
2022-09-17T03:52:25.117Z,100696.00
2022-09-17T03:57:26.893Z,100698.06
2022-09-17T04:02:28.442Z,100699.91
2022-09-17T04:07:30.083Z,100696.72
2022-09-17T04:12:31.720Z,100700.53
2022-09-17T04:17:33.220Z,100706.03
2022-09-17T04:22:34.727Z,100717.97
2022-09-17T04:27:36.258Z,100714.38
2022-09-17T04:32:37.865Z,100711.44
2022-09-17T04:37:40.467Z,100716.69
2022-09-17T04:42:41.992Z,100719.06
2022-09-17T04:47:43.584Z,100713.00
2022-09-17T04:52:46.409Z,100720.06
2022-09-17T04:57:52.887Z,100720.75
2022-09-17T05:02:55.273Z,100726.41
2022-09-17T05:07:56.757Z,100735.50
2022-09-17T05:12:58.426Z,100740.19
2022-09-17T05:17:59.943Z,100729.06
2022-09-17T05:23:01.450Z,100727.31
2022-09-17T05:28:03.124Z,100733.88
2022-09-17T05:33:06.344Z,100740.00
2022-09-17T05:38:07.867Z,100753.25
2022-09-17T05:43:10.104Z,100750.63
2022-09-17T05:48:13.996Z,100759.50
2022-09-17T05:53:15.499Z,100756.88
2022-09-17T05:58:19.363Z,100769.75
2022-09-17T06:03:21.463Z,100767.47
2022-09-17T06:08:23.148Z,100782.75
2022-09-17T06:13:24.715Z,100787.44
2022-09-17T06:18:27.676Z,100786.16
2022-09-17T06:23:32.705Z,100782.63
2022-09-17T06:28:37.872Z,100785.84
2022-09-17T06:33:42.206Z,100792.63
2022-09-17T06:38:43.744Z,100792.59
2022-09-17T06:43:45.272Z,100801.88
2022-09-17T06:48:46.814Z,100794.78
2022-09-17T06:53:48.573Z,100794.22
2022-09-17T06:58:50.116Z,100800.31
2022-09-17T07:03:51.657Z,100806.41
2022-09-17T07:08:53.192Z,100808.13
2022-09-17T07:13:54.730Z,100816.56
2022-09-17T07:18:56.200Z,100821.63
2022-09-17T07:23:57.861Z,100824.97
2022-09-17T07:28:59.488Z,100823.81
2022-09-17T07:34:01.015Z,100819.75
2022-09-17T07:39:02.605Z,100821.72
2022-09-17T07:44:04.107Z,100814.03
2022-09-17T07:49:05.586Z,100827.19
2022-09-17T07:54:07.201Z,100830.31
2022-09-17T07:59:09.751Z,100822.81
2022-09-17T08:04:11.408Z,100821.41
2022-09-17T08:09:13.041Z,100831.00
2022-09-17T08:14:15.590Z,100830.94
2022-09-17T08:19:17.121Z,100826.00
2022-09-17T08:24:18.656Z,100834.41
2022-09-17T08:29:20.241Z,100840.22
2022-09-17T08:34:21.840Z,100832.41
2022-09-17T08:39:23.355Z,100837.13
2022-09-17T08:44:27.471Z,100831.44
2022-09-17T08:49:32.082Z,100840.91
2022-09-17T08:55:06.264Z,100836.72
2022-09-17T09:00:12.565Z,100841.25
2022-09-17T09:05:18.296Z,100832.41
2022-09-17T09:10:42.183Z,100830.66
2022-09-17T09:15:47.678Z,100832.97
2022-09-17T09:21:20.795Z,100825.50
2022-09-17T09:27:07.318Z,100833.38
2022-09-17T09:32:32.205Z,100813.56
2022-09-17T09:37:39.102Z,100834.78
2022-09-17T09:42:40.649Z,100831.38
2022-09-17T09:48:00.210Z,100825.72
2022-09-17T09:53:47.968Z,100813.22
2022-09-17T09:58:49.520Z,100819.84
2022-09-17T10:03:52.531Z,100829.72
2022-09-17T10:08:57.210Z,100831.66
2022-09-17T10:14:14.969Z,100824.72
2022-09-17T10:19:21.196Z,100810.41
2022-09-17T10:24:27.074Z,100815.59
2022-09-17T10:29:28.815Z,100813.91
2022-09-17T10:34:32.569Z,100823.47
2022-09-17T10:39:37.953Z,100809.66
2022-09-17T10:44:51.413Z,100796.63
2022-09-17T10:49:59.737Z,100804.84
2022-09-17T10:55:18.910Z,100796.63
2022-09-17T11:00:22.503Z,100784.75
2022-09-17T11:05:54.810Z,100796.16
2022-09-17T11:11:16.577Z,100785.34
2022-09-17T11:16:34.142Z,100783.34
2022-09-17T11:22:05.217Z,100780.44
2022-09-17T11:27:34.177Z,100776.31
2022-09-17T11:32:38.498Z,100781.81
2022-09-17T11:37:44.517Z,100782.97
2022-09-17T11:42:56.122Z,100786.75
2022-09-17T11:48:11.853Z,100776.66
2022-09-17T11:53:32.379Z,100778.56
2022-09-17T11:58:39.991Z,100812.84
2022-09-17T12:03:49.382Z,100795.34
2022-09-17T12:09:01.671Z,100804.75
2022-09-17T12:14:34.188Z,100805.78
2022-09-17T12:19:51.531Z,100804.44
2022-09-17T12:24:54.379Z,100797.47
2022-09-17T12:30:08.681Z,100796.25
2022-09-17T12:35:46.670Z,100802.84
2022-09-17T12:41:04.020Z,100789.13
2022-09-17T12:46:17.687Z,100787.03
2022-09-17T12:51:54.889Z,100781.84
2022-09-17T12:57:05.518Z,100776.59
2022-09-17T13:02:34.038Z,100776.38
2022-09-17T13:08:20.896Z,100769.00
2022-09-17T13:13:49.011Z,100764.97
2022-09-17T13:19:27.925Z,100741.31
2022-09-17T13:24:30.971Z,100749.81
2022-09-17T13:30:01.823Z,100774.38
2022-09-17T13:35:15.279Z,100794.22
2022-09-17T13:40:34.070Z,100829.09
2022-09-17T13:45:58.739Z,100833.31
2022-09-17T13:51:31.439Z,100789.06
2022-09-17T13:56:38.388Z,100790.00
2022-09-17T14:01:49.046Z,100780.81
2022-09-17T14:06:51.712Z,100792.03
2022-09-17T14:11:53.357Z,100780.75
2022-09-17T14:16:57.456Z,100774.50
2022-09-17T14:22:24.903Z,100768.19
2022-09-17T14:27:51.635Z,100769.00
2022-09-17T14:32:56.047Z,100764.53
2022-09-17T14:38:16.839Z,100774.13
2022-09-17T14:43:35.551Z,100762.94
2022-09-17T14:48:40.034Z,100775.16
2022-09-17T14:53:41.588Z,100849.28
2022-09-17T14:58:52.674Z,100819.81
2022-09-17T15:04:12.699Z,100782.50
2022-09-17T15:09:25.701Z,100786.38
2022-09-17T15:14:30.476Z,100782.06
2022-09-17T15:19:36.387Z,100791.22
2022-09-17T15:24:47.771Z,100791.66
2022-09-17T15:30:06.441Z,100811.41
2022-09-17T15:35:14.328Z,100802.03
2022-09-17T15:40:34.017Z,100804.03
2022-09-17T15:45:35.726Z,100790.88
2022-09-17T15:50:53.753Z,100779.97
2022-09-17T15:56:06.255Z,100790.75
2022-09-17T16:01:16.993Z,100791.94
2022-09-17T16:06:18.618Z,100790.88
2022-09-17T16:11:22.406Z,100803.91
2022-09-17T16:16:29.104Z,100804.56
2022-09-17T16:21:30.732Z,100802.88
2022-09-17T16:26:34.990Z,100808.38
2022-09-17T16:31:36.544Z,100804.31
2022-09-17T16:36:38.189Z,100813.94
2022-09-17T16:41:39.759Z,100816.47
2022-09-17T16:46:41.663Z,100811.25
2022-09-17T16:51:43.265Z,100811.13
2022-09-17T16:56:44.840Z,100815.72
2022-09-17T17:01:46.421Z,100814.38
2022-09-17T17:06:47.915Z,100823.56
2022-09-17T17:11:49.436Z,100828.16
2022-09-17T17:16:51.019Z,100834.31
2022-09-17T17:21:53.349Z,100834.88
2022-09-17T17:26:54.841Z,100834.22
2022-09-17T17:31:56.319Z,100832.78
2022-09-17T17:36:58.835Z,100828.31
2022-09-17T17:42:00.427Z,100827.50
2022-09-17T17:47:01.947Z,100834.59
2022-09-17T17:52:03.501Z,100842.97
2022-09-17T17:57:05.076Z,100847.91
2022-09-17T18:02:06.964Z,100851.78
2022-09-17T18:07:08.623Z,100853.22
2022-09-17T18:12:10.169Z,100856.84
2022-09-17T18:17:11.653Z,100867.84
2022-09-17T18:22:13.204Z,100866.41
2022-09-17T18:27:14.778Z,100881.16
2022-09-17T18:32:16.261Z,100887.06
2022-09-17T18:37:17.781Z,100892.06
2022-09-17T18:42:19.307Z,100905.13
2022-09-17T18:47:20.805Z,100913.25
2022-09-17T18:52:22.323Z,100897.53
2022-09-17T18:57:23.828Z,100897.72
2022-09-17T19:02:25.523Z,100891.41
2022-09-17T19:07:27.354Z,100905.84
2022-09-17T19:12:30.117Z,100902.59
2022-09-17T19:17:31.667Z,100899.78
2022-09-17T19:22:33.147Z,100904.50
2022-09-17T19:27:34.683Z,100898.16
2022-09-17T19:32:36.287Z,100900.50
2022-09-17T19:37:37.781Z,100899.44
2022-09-17T19:42:39.267Z,100907.38
2022-09-17T19:47:40.779Z,100914.09
2022-09-17T19:52:42.338Z,100921.22
2022-09-17T19:57:43.849Z,100918.75
2022-09-17T20:02:45.446Z,100922.63
2022-09-17T20:07:46.932Z,100923.00
2022-09-17T20:12:48.452Z,100915.69
2022-09-17T20:17:49.976Z,100914.09
2022-09-17T20:22:51.553Z,100914.91
2022-09-17T20:27:53.297Z,100916.75
2022-09-17T20:32:55.196Z,100924.84
2022-09-17T20:43:18.257Z,100927.91
2022-09-17T20:48:20.124Z,100935.03
2022-09-17T20:53:21.623Z,100936.81
2022-09-17T20:58:24.116Z,100936.47
2022-09-17T21:03:25.592Z,100943.34
2022-09-17T21:08:28.024Z,100939.44
2022-09-17T21:13:29.534Z,100931.59
2022-09-17T21:18:34.178Z,100928.34
2022-09-17T21:23:39.346Z,100922.84
2022-09-17T21:28:42.452Z,100926.69
2022-09-17T21:33:45.110Z,100937.59
2022-09-17T21:38:51.173Z,100939.00
2022-09-17T21:43:53.004Z,100932.72
2022-09-17T21:48:56.929Z,100934.53
2022-09-17T21:54:01.859Z,100939.19
2022-09-17T21:59:08.755Z,100938.56
2022-09-17T22:04:12.292Z,100939.56
2022-09-17T22:09:20.063Z,100943.19
2022-09-17T22:14:23.648Z,100934.66
2022-09-17T22:19:26.007Z,100941.53
2022-09-17T22:24:27.744Z,100938.59
2022-09-17T22:29:29.228Z,100947.06
2022-09-17T22:34:30.730Z,100946.84
2022-09-17T22:39:32.290Z,100944.06
2022-09-17T22:44:33.809Z,100941.66
2022-09-17T22:49:35.309Z,100947.91
2022-09-17T22:54:36.770Z,100948.13
2022-09-17T22:59:38.332Z,100938.38
2022-09-17T23:04:39.822Z,100942.09
2022-09-17T23:09:41.327Z,100937.44
2022-09-17T23:14:42.822Z,100943.31
2022-09-17T23:19:44.310Z,100939.28
2022-09-17T23:24:45.882Z,100935.88
2022-09-17T23:29:47.340Z,100940.28
2022-09-17T23:34:48.825Z,100930.84
2022-09-17T23:39:50.317Z,100948.25
2022-09-17T23:44:51.862Z,100945.00
2022-09-17T23:49:53.404Z,100938.94
2022-09-17T23:54:58.289Z,100937.16
